sensor_id;sensor_type;location;lat;lon;timestamp;temperature;humidity
12504;DHT22;6316;48.118;-1.690;2023-07-20T00:01:45;18.40;95.20
12504;DHT22;6316;48.118;-1.690;2023-07-20T00:04:12;18.40;95.20
12504;DHT22;6316;48.118;-1.690;2023-07-20T00:06:38;18.30;95.30
12504;DHT22;6316;48.118;-1.690;2023-07-20T00:09:06;18.30;95.20
12504;DHT22;6316;48.118;-1.690;2023-07-20T00:11:36;18.30;95.30
12504;DHT22;6316;48.118;-1.690;2023-07-20T00:14:02;18.30;95.30
12504;DHT22;6316;48.118;-1.690;2023-07-20T00:16:27;18.30;95.40
12504;DHT22;6316;48.118;-1.690;2023-07-20T00:18:53;18.30;95.40
12504;DHT22;6316;48.118;-1.690;2023-07-20T00:21:18;18.20;95.40
12504;DHT22;6316;48.118;-1.690;2023-07-20T00:23:45;18.20;95.40
12504;DHT22;6316;48.118;-1.690;2023-07-20T00:26:10;18.20;95.40
12504;DHT22;6316;48.118;-1.690;2023-07-20T00:28:36;18.20;95.40
12504;DHT22;6316;48.118;-1.690;2023-07-20T00:31:02;18.10;95.40
12504;DHT22;6316;48.118;-1.690;2023-07-20T00:33:28;18.10;95.50
12504;DHT22;6316;48.118;-1.690;2023-07-20T00:35:53;18.10;95.50
12504;DHT22;6316;48.118;-1.690;2023-07-20T00:38:19;18.10;95.60
12504;DHT22;6316;48.118;-1.690;2023-07-20T00:40:46;18.10;95.60
12504;DHT22;6316;48.118;-1.690;2023-07-20T00:43:11;18.10;95.60
12504;DHT22;6316;48.118;-1.690;2023-07-20T00:45:37;18.10;95.60
12504;DHT22;6316;48.118;-1.690;2023-07-20T00:48:04;18.10;95.60
12504;DHT22;6316;48.118;-1.690;2023-07-20T00:50:32;18.10;95.70
12504;DHT22;6316;48.118;-1.690;2023-07-20T00:52:58;18.10;95.70
12504;DHT22;6316;48.118;-1.690;2023-07-20T00:55:24;18.20;95.70
12504;DHT22;6316;48.118;-1.690;2023-07-20T00:57:51;18.20;95.70
12504;DHT22;6316;48.118;-1.690;2023-07-20T01:00:16;18.20;95.70
12504;DHT22;6316;48.118;-1.690;2023-07-20T01:02:43;18.30;95.80
12504;DHT22;6316;48.118;-1.690;2023-07-20T01:05:09;18.30;95.80
12504;DHT22;6316;48.118;-1.690;2023-07-20T01:07:38;18.30;95.80
12504;DHT22;6316;48.118;-1.690;2023-07-20T01:10:33;18.30;95.80
12504;DHT22;6316;48.118;-1.690;2023-07-20T01:13:01;18.30;95.80
12504;DHT22;6316;48.118;-1.690;2023-07-20T01:15:28;18.30;95.90
12504;DHT22;6316;48.118;-1.690;2023-07-20T01:17:54;18.30;95.90
12504;DHT22;6316;48.118;-1.690;2023-07-20T01:20:21;18.20;95.90
12504;DHT22;6316;48.118;-1.690;2023-07-20T01:33:50;18.00;96.10
12504;DHT22;6316;48.118;-1.690;2023-07-20T01:36:18;17.90;96.50
12504;DHT22;6316;48.118;-1.690;2023-07-20T01:38:46;17.90;96.20
12504;DHT22;6316;48.118;-1.690;2023-07-20T01:41:12;17.90;96.20
12504;DHT22;6316;48.118;-1.690;2023-07-20T01:43:37;17.80;96.30
12504;DHT22;6316;48.118;-1.690;2023-07-20T01:46:03;17.80;96.30
12504;DHT22;6316;48.118;-1.690;2023-07-20T01:48:29;17.70;96.30
12504;DHT22;6316;48.118;-1.690;2023-07-20T01:50:54;17.70;96.30
12504;DHT22;6316;48.118;-1.690;2023-07-20T01:53:21;17.70;96.40
12504;DHT22;6316;48.118;-1.690;2023-07-20T01:55:47;17.60;96.40
12504;DHT22;6316;48.118;-1.690;2023-07-20T01:58:13;17.60;96.40
12504;DHT22;6316;48.118;-1.690;2023-07-20T02:00:38;17.60;96.40
12504;DHT22;6316;48.118;-1.690;2023-07-20T02:03:04;17.60;96.50
12504;DHT22;6316;48.118;-1.690;2023-07-20T02:05:30;17.50;96.50
12504;DHT22;6316;48.118;-1.690;2023-07-20T02:07:55;17.50;96.80
12504;DHT22;6316;48.118;-1.690;2023-07-20T02:10:21;17.50;96.50
12504;DHT22;6316;48.118;-1.690;2023-07-20T02:12:47;17.50;96.50
12504;DHT22;6316;48.118;-1.690;2023-07-20T02:15:14;17.50;96.60
12504;DHT22;6316;48.118;-1.690;2023-07-20T02:17:42;17.40;96.60
12504;DHT22;6316;48.118;-1.690;2023-07-20T02:20:08;17.40;96.60
12504;DHT22;6316;48.118;-1.690;2023-07-20T02:22:37;17.40;96.60
12504;DHT22;6316;48.118;-1.690;2023-07-20T02:25:04;17.40;96.60
12504;DHT22;6316;48.118;-1.690;2023-07-20T02:27:30;17.40;96.70
12504;DHT22;6316;48.118;-1.690;2023-07-20T02:29:56;17.30;96.70
12504;DHT22;6316;48.118;-1.690;2023-07-20T02:32:22;17.30;96.70
12504;DHT22;6316;48.118;-1.690;2023-07-20T02:34:47;17.30;96.70
12504;DHT22;6316;48.118;-1.690;2023-07-20T02:37:13;17.30;96.80
12504;DHT22;6316;48.118;-1.690;2023-07-20T02:39:39;17.20;96.70
12504;DHT22;6316;48.118;-1.690;2023-07-20T02:42:05;17.20;96.80
12504;DHT22;6316;48.118;-1.690;2023-07-20T02:44:31;17.20;96.80
12504;DHT22;6316;48.118;-1.690;2023-07-20T02:46:57;17.20;96.80
12504;DHT22;6316;48.118;-1.690;2023-07-20T02:49:22;17.10;96.80
12504;DHT22;6316;48.118;-1.690;2023-07-20T02:51:48;17.10;96.80
12504;DHT22;6316;48.118;-1.690;2023-07-20T02:54:14;17.10;96.90
12504;DHT22;6316;48.118;-1.690;2023-07-20T02:56:39;17.10;96.90
12504;DHT22;6316;48.118;-1.690;2023-07-20T02:59:05;17.00;96.90
12504;DHT22;6316;48.118;-1.690;2023-07-20T03:01:31;17.00;96.90
12504;DHT22;6316;48.118;-1.690;2023-07-20T03:03:56;17.00;96.90
12504;DHT22;6316;48.118;-1.690;2023-07-20T03:06:22;17.00;96.90
12504;DHT22;6316;48.118;-1.690;2023-07-20T03:08:48;16.90;97.00
12504;DHT22;6316;48.118;-1.690;2023-07-20T03:11:18;16.90;97.00
12504;DHT22;6316;48.118;-1.690;2023-07-20T03:13:44;16.90;97.00
12504;DHT22;6316;48.118;-1.690;2023-07-20T03:16:12;16.90;97.00
12504;DHT22;6316;48.118;-1.690;2023-07-20T03:18:41;16.90;97.00
12504;DHT22;6316;48.118;-1.690;2023-07-20T03:21:08;16.90;97.00
12504;DHT22;6316;48.118;-1.690;2023-07-20T03:23:34;16.80;97.00
12504;DHT22;6316;48.118;-1.690;2023-07-20T03:26:00;16.80;97.10
12504;DHT22;6316;48.118;-1.690;2023-07-20T03:28:26;16.80;97.10
12504;DHT22;6316;48.118;-1.690;2023-07-20T03:30:58;16.80;97.10
12504;DHT22;6316;48.118;-1.690;2023-07-20T03:33:28;16.80;97.10
12504;DHT22;6316;48.118;-1.690;2023-07-20T03:35:54;16.80;97.20
12504;DHT22;6316;48.118;-1.690;2023-07-20T03:38:20;16.70;97.20
12504;DHT22;6316;48.118;-1.690;2023-07-20T03:40:57;16.70;97.20
12504;DHT22;6316;48.118;-1.690;2023-07-20T03:43:24;16.70;97.20
12504;DHT22;6316;48.118;-1.690;2023-07-20T03:45:50;16.70;97.20
12504;DHT22;6316;48.118;-1.690;2023-07-20T03:48:21;16.70;97.20
12504;DHT22;6316;48.118;-1.690;2023-07-20T03:50:48;16.70;97.20
12504;DHT22;6316;48.118;-1.690;2023-07-20T03:53:15;16.70;97.30
12504;DHT22;6316;48.118;-1.690;2023-07-20T03:55:41;16.70;97.30
12504;DHT22;6316;48.118;-1.690;2023-07-20T03:58:09;16.60;97.30
12504;DHT22;6316;48.118;-1.690;2023-07-20T04:00:35;16.60;97.30
12504;DHT22;6316;48.118;-1.690;2023-07-20T04:03:01;16.60;97.30
12504;DHT22;6316;48.118;-1.690;2023-07-20T04:05:26;16.60;97.30
12504;DHT22;6316;48.118;-1.690;2023-07-20T04:07:52;16.60;97.40
12504;DHT22;6316;48.118;-1.690;2023-07-20T04:10:19;16.60;97.40
12504;DHT22;6316;48.118;-1.690;2023-07-20T04:12:45;16.60;97.40
12504;DHT22;6316;48.118;-1.690;2023-07-20T04:15:12;16.50;97.40
12504;DHT22;6316;48.118;-1.690;2023-07-20T04:17:39;16.50;97.40
12504;DHT22;6316;48.118;-1.690;2023-07-20T04:20:05;16.50;97.40
12504;DHT22;6316;48.118;-1.690;2023-07-20T04:22:31;16.50;97.70
12504;DHT22;6316;48.118;-1.690;2023-07-20T04:24:57;16.50;97.40
12504;DHT22;6316;48.118;-1.690;2023-07-20T04:27:22;16.50;97.40
12504;DHT22;6316;48.118;-1.690;2023-07-20T04:29:48;16.50;97.50
12504;DHT22;6316;48.118;-1.690;2023-07-20T04:32:14;16.50;97.50
12504;DHT22;6316;48.118;-1.690;2023-07-20T04:34:39;16.50;97.50
12504;DHT22;6316;48.118;-1.690;2023-07-20T04:37:05;16.50;97.50
12504;DHT22;6316;48.118;-1.690;2023-07-20T04:39:30;16.50;97.50
12504;DHT22;6316;48.118;-1.690;2023-07-20T04:41:57;16.50;97.50
12504;DHT22;6316;48.118;-1.690;2023-07-20T04:44:22;16.50;97.50
12504;DHT22;6316;48.118;-1.690;2023-07-20T04:46:48;16.50;97.50
12504;DHT22;6316;48.118;-1.690;2023-07-20T04:49:13;16.50;97.60
12504;DHT22;6316;48.118;-1.690;2023-07-20T04:51:39;16.50;97.60
12504;DHT22;6316;48.118;-1.690;2023-07-20T04:54:05;16.50;97.60
12504;DHT22;6316;48.118;-1.690;2023-07-20T04:56:30;16.50;97.60
12504;DHT22;6316;48.118;-1.690;2023-07-20T04:58:56;16.50;97.60
12504;DHT22;6316;48.118;-1.690;2023-07-20T05:01:23;16.50;97.60
12504;DHT22;6316;48.118;-1.690;2023-07-20T05:03:48;16.50;97.60
12504;DHT22;6316;48.118;-1.690;2023-07-20T05:06:15;16.60;97.60
12504;DHT22;6316;48.118;-1.690;2023-07-20T05:08:41;16.60;97.60
12504;DHT22;6316;48.118;-1.690;2023-07-20T05:11:06;16.70;97.70
12504;DHT22;6316;48.118;-1.690;2023-07-20T05:13:33;16.70;97.70
12504;DHT22;6316;48.118;-1.690;2023-07-20T05:15:58;16.80;97.70
12504;DHT22;6316;48.118;-1.690;2023-07-20T05:18:24;16.80;97.70
12504;DHT22;6316;48.118;-1.690;2023-07-20T05:20:50;16.80;97.70
12504;DHT22;6316;48.118;-1.690;2023-07-20T05:23:17;16.80;97.70
12504;DHT22;6316;48.118;-1.690;2023-07-20T05:25:43;16.80;97.70
12504;DHT22;6316;48.118;-1.690;2023-07-20T05:28:09;16.90;97.70
12504;DHT22;6316;48.118;-1.690;2023-07-20T05:30:35;16.90;97.70
12504;DHT22;6316;48.118;-1.690;2023-07-20T05:33:00;17.00;97.70
12504;DHT22;6316;48.118;-1.690;2023-07-20T05:35:26;17.00;97.70
12504;DHT22;6316;48.118;-1.690;2023-07-20T05:37:52;17.00;97.70
12504;DHT22;6316;48.118;-1.690;2023-07-20T05:40:18;17.00;97.70
12504;DHT22;6316;48.118;-1.690;2023-07-20T05:42:48;17.10;97.70
12504;DHT22;6316;48.118;-1.690;2023-07-20T05:45:17;17.10;97.70
12504;DHT22;6316;48.118;-1.690;2023-07-20T05:47:43;17.20;97.80
12504;DHT22;6316;48.118;-1.690;2023-07-20T05:50:09;17.30;97.80
12504;DHT22;6316;48.118;-1.690;2023-07-20T05:52:35;17.30;97.80
12504;DHT22;6316;48.118;-1.690;2023-07-20T05:55:01;17.40;97.80
12504;DHT22;6316;48.118;-1.690;2023-07-20T05:57:26;17.50;97.80
12504;DHT22;6316;48.118;-1.690;2023-07-20T05:59:52;17.60;97.80
12504;DHT22;6316;48.118;-1.690;2023-07-20T06:02:18;17.70;97.80
12504;DHT22;6316;48.118;-1.690;2023-07-20T06:04:43;17.70;97.80
12504;DHT22;6316;48.118;-1.690;2023-07-20T06:07:09;17.80;97.80
12504;DHT22;6316;48.118;-1.690;2023-07-20T06:09:36;17.90;97.80
12504;DHT22;6316;48.118;-1.690;2023-07-20T06:12:02;18.00;97.80
12504;DHT22;6316;48.118;-1.690;2023-07-20T06:14:27;18.10;97.80
12504;DHT22;6316;48.118;-1.690;2023-07-20T06:16:53;18.10;97.70
12504;DHT22;6316;48.118;-1.690;2023-07-20T06:19:19;18.20;97.70
12504;DHT22;6316;48.118;-1.690;2023-07-20T06:21:44;18.40;97.80
12504;DHT22;6316;48.118;-1.690;2023-07-20T06:24:10;18.50;97.70
12504;DHT22;6316;48.118;-1.690;2023-07-20T06:26:35;18.60;97.70
12504;DHT22;6316;48.118;-1.690;2023-07-20T06:29:07;18.60;97.70
12504;DHT22;6316;48.118;-1.690;2023-07-20T06:31:34;18.80;97.70
12504;DHT22;6316;48.118;-1.690;2023-07-20T06:34:01;18.80;97.70
12504;DHT22;6316;48.118;-1.690;2023-07-20T06:36:27;18.90;97.70
12504;DHT22;6316;48.118;-1.690;2023-07-20T06:38:53;19.00;97.70
12504;DHT22;6316;48.118;-1.690;2023-07-20T06:41:19;19.20;97.70
12504;DHT22;6316;48.118;-1.690;2023-07-20T06:43:45;19.30;97.60
12504;DHT22;6316;48.118;-1.690;2023-07-20T06:46:11;19.40;97.60
12504;DHT22;6316;48.118;-1.690;2023-07-20T06:48:36;19.40;97.60
12504;DHT22;6316;48.118;-1.690;2023-07-20T06:51:02;19.60;97.60
12504;DHT22;6316;48.118;-1.690;2023-07-20T06:53:28;19.80;97.70
12504;DHT22;6316;48.118;-1.690;2023-07-20T06:55:54;20.50;97.60
12504;DHT22;6316;48.118;-1.690;2023-07-20T06:58:22;21.30;97.30
12504;DHT22;6316;48.118;-1.690;2023-07-20T07:00:48;22.00;96.90
12504;DHT22;6316;48.118;-1.690;2023-07-20T07:03:14;22.70;96.50
12504;DHT22;6316;48.118;-1.690;2023-07-20T07:05:39;22.90;96.30
12504;DHT22;6316;48.118;-1.690;2023-07-20T07:08:05;22.90;96.20
12504;DHT22;6316;48.118;-1.690;2023-07-20T07:10:31;22.90;96.20
12504;DHT22;6316;48.118;-1.690;2023-07-20T07:12:57;22.80;96.30
12504;DHT22;6316;48.118;-1.690;2023-07-20T07:15:22;22.70;96.30
12504;DHT22;6316;48.118;-1.690;2023-07-20T07:17:48;22.60;96.40
12504;DHT22;6316;48.118;-1.690;2023-07-20T07:20:14;22.70;96.50
12504;DHT22;6316;48.118;-1.690;2023-07-20T07:22:40;22.70;96.50
12504;DHT22;6316;48.118;-1.690;2023-07-20T07:25:10;22.60;96.50
12504;DHT22;6316;48.118;-1.690;2023-07-20T07:27:36;22.40;96.50
12504;DHT22;6316;48.118;-1.690;2023-07-20T07:30:03;22.20;96.50
12504;DHT22;6316;48.118;-1.690;2023-07-20T07:32:29;22.00;96.60
12504;DHT22;6316;48.118;-1.690;2023-07-20T07:34:54;21.80;96.70
12504;DHT22;6316;48.118;-1.690;2023-07-20T07:37:21;21.70;96.80
12504;DHT22;6316;48.118;-1.690;2023-07-20T07:39:46;21.60;96.90
12504;DHT22;6316;48.118;-1.690;2023-07-20T07:42:12;21.60;97.00
12504;DHT22;6316;48.118;-1.690;2023-07-20T07:44:38;21.50;97.00
12504;DHT22;6316;48.118;-1.690;2023-07-20T07:47:04;21.50;97.10
12504;DHT22;6316;48.118;-1.690;2023-07-20T07:49:30;21.50;97.10
12504;DHT22;6316;48.118;-1.690;2023-07-20T07:51:57;21.60;97.10
12504;DHT22;6316;48.118;-1.690;2023-07-20T07:54:22;21.60;97.10
12504;DHT22;6316;48.118;-1.690;2023-07-20T07:56:48;21.70;97.10
12504;DHT22;6316;48.118;-1.690;2023-07-20T07:59:14;21.80;97.10
12504;DHT22;6316;48.118;-1.690;2023-07-20T08:01:39;21.80;97.00
12504;DHT22;6316;48.118;-1.690;2023-07-20T08:04:05;21.90;97.00
12504;DHT22;6316;48.118;-1.690;2023-07-20T08:06:31;21.80;97.00
12504;DHT22;6316;48.118;-1.690;2023-07-20T08:08:57;21.80;97.00
12504;DHT22;6316;48.118;-1.690;2023-07-20T08:11:23;21.80;97.00
12504;DHT22;6316;48.118;-1.690;2023-07-20T08:13:49;21.70;97.00
12504;DHT22;6316;48.118;-1.690;2023-07-20T08:16:15;21.70;97.00
12504;DHT22;6316;48.118;-1.690;2023-07-20T08:18:40;21.70;97.10
12504;DHT22;6316;48.118;-1.690;2023-07-20T08:21:06;22.10;97.20
12504;DHT22;6316;48.118;-1.690;2023-07-20T08:23:32;22.80;97.10
12504;DHT22;6316;48.118;-1.690;2023-07-20T08:25:57;23.70;96.80
12504;DHT22;6316;48.118;-1.690;2023-07-20T08:28:23;24.50;96.30
12504;DHT22;6316;48.118;-1.690;2023-07-20T08:30:49;25.20;95.90
12504;DHT22;6316;48.118;-1.690;2023-07-20T08:33:16;25.70;95.60
12504;DHT22;6316;48.118;-1.690;2023-07-20T08:35:43;25.90;95.30
12504;DHT22;6316;48.118;-1.690;2023-07-20T08:38:09;26.10;95.30
12504;DHT22;6316;48.118;-1.690;2023-07-20T08:40:40;26.70;95.30
12504;DHT22;6316;48.118;-1.690;2023-07-20T08:43:06;27.20;95.00
12504;DHT22;6316;48.118;-1.690;2023-07-20T08:45:33;27.50;94.80
12504;DHT22;6316;48.118;-1.690;2023-07-20T08:48:01;27.80;94.60
12504;DHT22;6316;48.118;-1.690;2023-07-20T08:50:30;27.80;94.60
12504;DHT22;6316;48.118;-1.690;2023-07-20T08:52:57;27.70;94.60
12504;DHT22;6316;48.118;-1.690;2023-07-20T08:55:24;27.30;94.60
12504;DHT22;6316;48.118;-1.690;2023-07-20T08:57:53;26.90;94.80
12504;DHT22;6316;48.118;-1.690;2023-07-20T09:00:21;26.60;95.00
12504;DHT22;6316;48.118;-1.690;2023-07-20T09:02:52;26.30;95.20
12504;DHT22;6316;48.118;-1.690;2023-07-20T09:05:18;26.10;95.30
12504;DHT22;6316;48.118;-1.690;2023-07-20T09:07:44;26.10;95.40
12504;DHT22;6316;48.118;-1.690;2023-07-20T09:10:10;26.00;95.50
12504;DHT22;6316;48.118;-1.690;2023-07-20T09:12:38;26.10;95.50
12504;DHT22;6316;48.118;-1.690;2023-07-20T09:15:06;26.20;95.50
12504;DHT22;6316;48.118;-1.690;2023-07-20T09:17:32;26.40;95.50
12504;DHT22;6316;48.118;-1.690;2023-07-20T09:19:58;26.40;95.30
12504;DHT22;6316;48.118;-1.690;2023-07-20T09:22:31;26.40;95.20
12504;DHT22;6316;48.118;-1.690;2023-07-20T09:24:58;26.40;95.20
12504;DHT22;6316;48.118;-1.690;2023-07-20T09:27:38;26.30;95.20
12504;DHT22;6316;48.118;-1.690;2023-07-20T09:30:05;26.30;95.20
12504;DHT22;6316;48.118;-1.690;2023-07-20T09:32:45;26.40;95.10
12504;DHT22;6316;48.118;-1.690;2023-07-20T09:35:19;26.50;95.00
12504;DHT22;6316;48.118;-1.690;2023-07-20T09:37:58;26.80;94.80
12504;DHT22;6316;48.118;-1.690;2023-07-20T09:40:25;27.10;94.60
12504;DHT22;6316;48.118;-1.690;2023-07-20T09:42:52;27.20;94.40
12504;DHT22;6316;48.118;-1.690;2023-07-20T09:45:19;27.30;94.40
12504;DHT22;6316;48.118;-1.690;2023-07-20T09:47:45;27.40;94.30
12504;DHT22;6316;48.118;-1.690;2023-07-20T09:50:11;27.30;94.30
12504;DHT22;6316;48.118;-1.690;2023-07-20T09:52:40;27.20;94.30
12504;DHT22;6316;48.118;-1.690;2023-07-20T09:55:07;27.10;94.40
12504;DHT22;6316;48.118;-1.690;2023-07-20T09:57:34;27.00;94.40
12504;DHT22;6316;48.118;-1.690;2023-07-20T10:00:05;26.90;94.50
12504;DHT22;6316;48.118;-1.690;2023-07-20T10:02:43;26.80;94.50
12504;DHT22;6316;48.118;-1.690;2023-07-20T10:05:14;26.70;94.50
12504;DHT22;6316;48.118;-1.690;2023-07-20T10:07:50;26.70;94.60
12504;DHT22;6316;48.118;-1.690;2023-07-20T10:10:18;26.60;94.60
12504;DHT22;6316;48.118;-1.690;2023-07-20T10:12:49;26.40;94.50
12504;DHT22;6316;48.118;-1.690;2023-07-20T10:15:25;26.30;94.60
12504;DHT22;6316;48.118;-1.690;2023-07-20T10:18:12;26.20;94.60
12504;DHT22;6316;48.118;-1.690;2023-07-20T10:20:40;26.10;94.60
12504;DHT22;6316;48.118;-1.690;2023-07-20T10:23:07;26.00;94.60
12504;DHT22;6316;48.118;-1.690;2023-07-20T10:25:33;26.00;94.70
12504;DHT22;6316;48.118;-1.690;2023-07-20T10:28:05;25.90;94.60
12504;DHT22;6316;48.118;-1.690;2023-07-20T10:30:35;25.80;94.60
12504;DHT22;6316;48.118;-1.690;2023-07-20T10:33:02;25.70;94.60
12504;DHT22;6316;48.118;-1.690;2023-07-20T10:35:54;25.60;94.60
12504;DHT22;6316;48.118;-1.690;2023-07-20T10:38:20;25.60;94.70
12504;DHT22;6316;48.118;-1.690;2023-07-20T10:40:58;25.50;94.60
12504;DHT22;6316;48.118;-1.690;2023-07-20T10:43:24;25.60;94.70
12504;DHT22;6316;48.118;-1.690;2023-07-20T10:45:52;25.60;94.70
12504;DHT22;6316;48.118;-1.690;2023-07-20T10:48:22;25.70;94.60
12504;DHT22;6316;48.118;-1.690;2023-07-20T10:51:14;25.70;94.60
12504;DHT22;6316;48.118;-1.690;2023-07-20T10:53:45;25.70;94.50
12504;DHT22;6316;48.118;-1.690;2023-07-20T10:56:15;25.70;94.50
12504;DHT22;6316;48.118;-1.690;2023-07-20T10:58:41;25.80;94.50
12504;DHT22;6316;48.118;-1.690;2023-07-20T11:01:08;25.90;94.40
12504;DHT22;6316;48.118;-1.690;2023-07-20T11:03:37;25.90;94.40
12504;DHT22;6316;48.118;-1.690;2023-07-20T11:08:56;25.90;94.30
12504;DHT22;6316;48.118;-1.690;2023-07-20T11:13:58;26.00;94.30
12504;DHT22;6316;48.118;-1.690;2023-07-20T11:16:38;26.10;94.30
12504;DHT22;6316;48.118;-1.690;2023-07-20T11:19:05;26.10;94.20
12504;DHT22;6316;48.118;-1.690;2023-07-20T11:21:37;26.20;94.10
12504;DHT22;6316;48.118;-1.690;2023-07-20T11:24:05;26.30;94.10
12504;DHT22;6316;48.118;-1.690;2023-07-20T11:26:46;26.40;94.00
12504;DHT22;6316;48.118;-1.690;2023-07-20T11:29:13;26.70;93.90
12504;DHT22;6316;48.118;-1.690;2023-07-20T11:31:43;26.90;93.80
12504;DHT22;6316;48.118;-1.690;2023-07-20T11:34:15;27.20;93.70
12504;DHT22;6316;48.118;-1.690;2023-07-20T11:36:46;27.20;93.50
12504;DHT22;6316;48.118;-1.690;2023-07-20T11:39:17;27.20;93.40
12504;DHT22;6316;48.118;-1.690;2023-07-20T11:41:55;27.10;93.40
12504;DHT22;6316;48.118;-1.690;2023-07-20T11:44:22;27.10;93.40
12504;DHT22;6316;48.118;-1.690;2023-07-20T11:47:03;27.10;93.50
12504;DHT22;6316;48.118;-1.690;2023-07-20T11:49:29;27.00;93.30
12504;DHT22;6316;48.118;-1.690;2023-07-20T11:51:56;26.90;93.30
12504;DHT22;6316;48.118;-1.690;2023-07-20T11:54:22;26.90;93.40
12504;DHT22;6316;48.118;-1.690;2023-07-20T11:56:48;26.80;93.30
12504;DHT22;6316;48.118;-1.690;2023-07-20T11:59:14;26.70;93.30
12504;DHT22;6316;48.118;-1.690;2023-07-20T12:01:39;26.60;93.30
12504;DHT22;6316;48.118;-1.690;2023-07-20T12:04:06;26.50;93.30
12504;DHT22;6316;48.118;-1.690;2023-07-20T12:06:32;26.30;93.40
12504;DHT22;6316;48.118;-1.690;2023-07-20T12:08:58;26.20;93.30
12504;DHT22;6316;48.118;-1.690;2023-07-20T12:11:33;26.20;93.40
12504;DHT22;6316;48.118;-1.690;2023-07-20T12:13:58;26.10;93.40
12504;DHT22;6316;48.118;-1.690;2023-07-20T12:16:27;26.10;93.40
12504;DHT22;6316;48.118;-1.690;2023-07-20T12:19:11;26.00;93.40
12504;DHT22;6316;48.118;-1.690;2023-07-20T12:21:38;26.00;93.40
12504;DHT22;6316;48.118;-1.690;2023-07-20T12:24:06;26.10;93.30
12504;DHT22;6316;48.118;-1.690;2023-07-20T12:26:33;26.10;93.30
12504;DHT22;6316;48.118;-1.690;2023-07-20T12:28:59;26.10;93.20
12504;DHT22;6316;48.118;-1.690;2023-07-20T12:31:27;26.30;93.20
12504;DHT22;6316;48.118;-1.690;2023-07-20T12:33:53;26.30;93.10
12504;DHT22;6316;48.118;-1.690;2023-07-20T12:36:21;26.30;93.00
12504;DHT22;6316;48.118;-1.690;2023-07-20T12:38:46;26.30;93.00
12504;DHT22;6316;48.118;-1.690;2023-07-20T12:41:13;26.30;93.00
12504;DHT22;6316;48.118;-1.690;2023-07-20T12:43:40;26.30;93.00
12504;DHT22;6316;48.118;-1.690;2023-07-20T12:46:07;26.30;93.00
12504;DHT22;6316;48.118;-1.690;2023-07-20T12:48:32;26.40;93.00
12504;DHT22;6316;48.118;-1.690;2023-07-20T12:50:58;26.50;92.90
12504;DHT22;6316;48.118;-1.690;2023-07-20T12:53:24;26.60;92.90
12504;DHT22;6316;48.118;-1.690;2023-07-20T12:55:50;26.60;92.80
12504;DHT22;6316;48.118;-1.690;2023-07-20T12:58:15;26.60;92.80
12504;DHT22;6316;48.118;-1.690;2023-07-20T13:00:41;26.70;92.80
12504;DHT22;6316;48.118;-1.690;2023-07-20T13:03:07;26.70;92.70
12504;DHT22;6316;48.118;-1.690;2023-07-20T13:05:34;26.60;92.70
12504;DHT22;6316;48.118;-1.690;2023-07-20T13:08:01;26.50;92.60
12504;DHT22;6316;48.118;-1.690;2023-07-20T13:10:27;26.40;92.60
12504;DHT22;6316;48.118;-1.690;2023-07-20T13:12:53;26.40;92.70
12504;DHT22;6316;48.118;-1.690;2023-07-20T13:15:19;26.40;92.70
12504;DHT22;6316;48.118;-1.690;2023-07-20T13:17:44;26.40;92.70
12504;DHT22;6316;48.118;-1.690;2023-07-20T13:20:11;26.50;92.60
12504;DHT22;6316;48.118;-1.690;2023-07-20T13:22:38;26.60;92.60
12504;DHT22;6316;48.118;-1.690;2023-07-20T13:25:04;26.50;92.50
12504;DHT22;6316;48.118;-1.690;2023-07-20T13:27:30;26.60;92.50
12504;DHT22;6316;48.118;-1.690;2023-07-20T13:29:57;26.60;92.40
12504;DHT22;6316;48.118;-1.690;2023-07-20T13:32:23;26.60;92.40
12504;DHT22;6316;48.118;-1.690;2023-07-20T13:34:48;26.60;92.40
12504;DHT22;6316;48.118;-1.690;2023-07-20T13:37:14;26.60;92.40
12504;DHT22;6316;48.118;-1.690;2023-07-20T13:39:41;26.80;92.30
12504;DHT22;6316;48.118;-1.690;2023-07-20T13:42:07;26.90;92.30
12504;DHT22;6316;48.118;-1.690;2023-07-20T13:44:36;27.00;92.10
12504;DHT22;6316;48.118;-1.690;2023-07-20T13:47:03;27.10;92.10
12504;DHT22;6316;48.118;-1.690;2023-07-20T13:49:31;27.20;92.00
12504;DHT22;6316;48.118;-1.690;2023-07-20T13:51:56;27.30;92.00
12504;DHT22;6316;48.118;-1.690;2023-07-20T13:54:25;27.30;91.90
12504;DHT22;6316;48.118;-1.690;2023-07-20T13:56:51;27.30;91.90
12504;DHT22;6316;48.118;-1.690;2023-07-20T13:59:18;27.20;91.80
12504;DHT22;6316;48.118;-1.690;2023-07-20T14:01:43;27.10;91.90
12504;DHT22;6316;48.118;-1.690;2023-07-20T14:04:09;27.10;91.90
12504;DHT22;6316;48.118;-1.690;2023-07-20T14:06:35;27.00;91.90
12504;DHT22;6316;48.118;-1.690;2023-07-20T14:09:01;26.80;91.90
12504;DHT22;6316;48.118;-1.690;2023-07-20T14:11:27;26.70;92.00
12504;DHT22;6316;48.118;-1.690;2023-07-20T14:13:53;26.60;92.10
12504;DHT22;6316;48.118;-1.690;2023-07-20T14:16:20;26.40;92.10
12504;DHT22;6316;48.118;-1.690;2023-07-20T14:18:45;26.20;92.10
12504;DHT22;6316;48.118;-1.690;2023-07-20T14:21:21;26.10;92.20
12504;DHT22;6316;48.118;-1.690;2023-07-20T14:23:48;26.00;92.30
12504;DHT22;6316;48.118;-1.690;2023-07-20T14:26:15;25.90;92.30
12504;DHT22;6316;48.118;-1.690;2023-07-20T14:28:41;25.80;92.30
12504;DHT22;6316;48.118;-1.690;2023-07-20T14:31:07;25.60;92.30
12504;DHT22;6316;48.118;-1.690;2023-07-20T14:33:33;25.60;92.40
12504;DHT22;6316;48.118;-1.690;2023-07-20T14:35:58;25.50;92.40
12504;DHT22;6316;48.118;-1.690;2023-07-20T14:38:27;25.40;92.40
12504;DHT22;6316;48.118;-1.690;2023-07-20T14:40:53;25.40;92.50
12504;DHT22;6316;48.118;-1.690;2023-07-20T14:43:19;25.30;92.50
12504;DHT22;6316;48.118;-1.690;2023-07-20T14:45:45;25.40;92.60
12504;DHT22;6316;48.118;-1.690;2023-07-20T14:48:11;25.40;92.50
12504;DHT22;6316;48.118;-1.690;2023-07-20T14:50:36;25.40;92.50
12504;DHT22;6316;48.118;-1.690;2023-07-20T14:53:02;25.40;92.50
12504;DHT22;6316;48.118;-1.690;2023-07-20T14:55:28;25.40;92.50
12504;DHT22;6316;48.118;-1.690;2023-07-20T14:57:54;25.30;92.50
12504;DHT22;6316;48.118;-1.690;2023-07-20T15:00:20;25.40;92.60
12504;DHT22;6316;48.118;-1.690;2023-07-20T15:02:46;25.40;92.50
12504;DHT22;6316;48.118;-1.690;2023-07-20T15:05:20;25.50;92.50
12504;DHT22;6316;48.118;-1.690;2023-07-20T15:07:46;25.50;92.50
12504;DHT22;6316;48.118;-1.690;2023-07-20T15:10:12;25.50;92.50
12504;DHT22;6316;48.118;-1.690;2023-07-20T15:12:37;25.40;92.50
12504;DHT22;6316;48.118;-1.690;2023-07-20T15:15:08;25.40;92.50
12504;DHT22;6316;48.118;-1.690;2023-07-20T15:17:35;25.30;92.60
12504;DHT22;6316;48.118;-1.690;2023-07-20T15:20:02;25.20;92.60
12504;DHT22;6316;48.118;-1.690;2023-07-20T15:22:30;25.00;92.60
12504;DHT22;6316;48.118;-1.690;2023-07-20T15:24:56;25.00;92.70
12504;DHT22;6316;48.118;-1.690;2023-07-20T15:27:22;24.90;92.70
12504;DHT22;6316;48.118;-1.690;2023-07-20T15:29:49;24.80;92.80
12504;DHT22;6316;48.118;-1.690;2023-07-20T15:32:15;24.70;92.80
12504;DHT22;6316;48.118;-1.690;2023-07-20T15:34:42;24.60;92.80
12504;DHT22;6316;48.118;-1.690;2023-07-20T15:37:09;24.50;92.90
12504;DHT22;6316;48.118;-1.690;2023-07-20T15:39:35;24.50;92.90
12504;DHT22;6316;48.118;-1.690;2023-07-20T15:42:01;24.50;93.00
12504;DHT22;6316;48.118;-1.690;2023-07-20T15:44:26;24.50;93.00
12504;DHT22;6316;48.118;-1.690;2023-07-20T15:46:52;24.50;92.90